WXM80 ListenWXM80 Stop

You find our weather info also at:

UK Metoffice

WeatherCloud

Weather Underground

Northeastern Weather Network

AWEKAS

Citizen Weather Observer Program (CWOP)

HAMweather, WeatherForYou, PWS Weather


Weather Underground History page Text

Daily Summary for May 2, 2017 Units:  Both    English   Metric
« Previous Day
Next Day »
Daily Weekly Monthly Yearly Custom
  High: Low: Average:
Temperature: 78.7 °F /  25.9 °C 62.4 °F /  16.9 °C 68.7 °F /  20.4 °C
Dew Point: 67.7 °F /  19.8 °C 41.3 °F /  5.2 °C 55.5 °F /  13.1 °C
Humidity: 95 % 37 % 67 %
Wind Speed: 13.7 mph /  22 km/h - 5.7 mph /  9.2 km/h
Wind Gust: 27.6 mph /  44.4 km/h - -
Wind:- - SW
Pressure: 29.73 in /  1006.7 hPa 29.50 in /  998.9 hPa -
Precipitation: 0.00 in /  0 mm    
Historical Graphs
 
 
Tabular Data for May 2, 2017
Time Temperature Dew Point Pressure Wind Wind Speed Wind Gust Humidity Rainfall Rate (Hourly)
00:03 64.1 °F /  17.8 °C 61.4 °F /  16.3 °C 29.63 in /  1003.3 hPa WSW 6.2 mph /  10 km/h 9.2 mph /  14.8 km/h 91 % 0.00 in /  0 mm
00:08 64.1 °F /  17.8 °C 61.1 °F /  16.2 °C 29.62 in /  1002.9 hPa SSE 4.9 mph /  7.9 km/h 10.4 mph /  16.7 km/h 90 % 0.00 in /  0 mm
00:13 64.0 °F /  17.8 °C 61.3 °F /  16.3 °C 29.62 in /  1002.9 hPa SW 4.2 mph /  6.8 km/h 10.4 mph /  16.7 km/h 91 % 0.00 in /  0 mm
00:18 64.0 °F /  17.8 °C 61.3 °F /  16.3 °C 29.62 in /  1002.9 hPa SSW 7.6 mph /  12.2 km/h 12.7 mph /  20.4 km/h 91 % 0.00 in /  0 mm
00:23 64.0 °F /  17.8 °C 61.3 °F /  16.3 °C 29.62 in /  1002.9 hPa SW 3.9 mph /  6.3 km/h 5.8 mph /  9.3 km/h 91 % 0.00 in /  0 mm
00:28 64.1 °F /  17.8 °C 61.4 °F /  16.3 °C 29.61 in /  1002.6 hPa SSW 7.9 mph /  12.7 km/h 10.4 mph /  16.7 km/h 91 % 0.00 in /  0 mm
00:33 64.1 °F /  17.8 °C 61.4 °F /  16.3 °C 29.62 in /  1002.9 hPa South 9.7 mph /  15.6 km/h 12.7 mph /  20.4 km/h 91 % 0.00 in /  0 mm
00:38 64.2 °F /  17.9 °C 61.5 °F /  16.4 °C 29.61 in /  1002.6 hPa SSW 6.4 mph /  10.3 km/h 11.5 mph /  18.5 km/h 91 % 0.00 in /  0 mm
00:43 64.2 °F /  17.9 °C 61.5 °F /  16.4 °C 29.61 in /  1002.6 hPa SSW 11.1 mph /  17.9 km/h 23.0 mph /  37 km/h 91 % 0.00 in /  0 mm
00:48 64.4 °F /  18 °C 61.7 °F /  16.5 °C 29.61 in /  1002.6 hPa SSW 7.7 mph /  12.4 km/h 18.4 mph /  29.6 km/h 91 % 0.00 in /  0 mm
00:54 64.6 °F /  18.1 °C 61.9 °F /  16.6 °C 29.61 in /  1002.6 hPa SSW 9.2 mph /  14.8 km/h 16.1 mph /  25.9 km/h 91 % 0.00 in /  0 mm
00:59 64.8 °F /  18.2 °C 62.1 °F /  16.7 °C 29.61 in /  1002.6 hPa ESE 8.4 mph /  13.5 km/h 16.1 mph /  25.9 km/h 91 % 0.00 in /  0 mm
01:04 64.9 °F /  18.3 °C 61.9 °F /  16.6 °C 29.60 in /  1002.3 hPa SSE 9.4 mph /  15.1 km/h 20.7 mph /  33.3 km/h 90 % 0.00 in /  0 mm
01:09 65.0 °F /  18.3 °C 62.0 °F /  16.7 °C 29.60 in /  1002.3 hPa South 7.2 mph /  11.6 km/h 15.0 mph /  24.1 km/h 90 % 0.00 in /  0 mm
01:14 65.0 °F /  18.3 °C 61.7 °F /  16.5 °C 29.61 in /  1002.6 hPa South 8.1 mph /  13 km/h 12.7 mph /  20.4 km/h 89 % 0.00 in /  0 mm
01:19 65.0 °F /  18.3 °C 61.7 °F /  16.5 °C 29.61 in /  1002.6 hPa SSW 6.1 mph /  9.8 km/h 11.5 mph /  18.5 km/h 89 % 0.00 in /  0 mm
01:24 65.0 °F /  18.3 °C 61.7 °F /  16.5 °C 29.61 in /  1002.6 hPa South 7.1 mph /  11.4 km/h 10.0 mph /  16.1 km/h 89 % 0.00 in /  0 mm
01:29 64.9 °F /  18.3 °C 61.6 °F /  16.4 °C 29.61 in /  1002.6 hPa South 7.1 mph /  11.4 km/h 12.7 mph /  20.4 km/h 89 % 0.00 in /  0 mm
01:34 64.9 °F /  18.3 °C 61.6 °F /  16.4 °C 29.61 in /  1002.6 hPa SSW 8.6 mph /  13.8 km/h 10.4 mph /  16.7 km/h 89 % 0.00 in /  0 mm
01:39 65.0 °F /  18.3 °C 61.7 °F /  16.5 °C 29.60 in /  1002.3 hPa South 8.7 mph /  14 km/h 10.4 mph /  16.7 km/h 89 % 0.00 in /  0 mm
01:45 65.0 °F /  18.3 °C 61.7 °F /  16.5 °C 29.59 in /  1001.9 hPa South 7.4 mph /  11.9 km/h 15.0 mph /  24.1 km/h 89 % 0.00 in /  0 mm
01:50 65.0 °F /  18.3 °C 61.7 °F /  16.5 °C 29.59 in /  1001.9 hPa SSW 12.4 mph /  20 km/h 19.6 mph /  31.5 km/h 89 % 0.00 in /  0 mm
01:55 65.0 °F /  18.3 °C 61.7 °F /  16.5 °C 29.59 in /  1001.9 hPa SSW 6.0 mph /  9.7 km/h 12.7 mph /  20.4 km/h 89 % 0.00 in /  0 mm
02:00 65.0 °F /  18.3 °C 61.7 °F /  16.5 °C 29.59 in /  1001.9 hPa SSW 9.3 mph /  15 km/h 18.4 mph /  29.6 km/h 89 % 0.00 in /  0 mm
02:05 64.9 °F /  18.3 °C 61.6 °F /  16.4 °C 29.59 in /  1001.9 hPa SSW 7.1 mph /  11.4 km/h 15.0 mph /  24.1 km/h 89 % 0.00 in /  0 mm
02:10 64.9 °F /  18.3 °C 61.6 °F /  16.4 °C 29.59 in /  1001.9 hPa South 3.0 mph /  4.8 km/h 6.9 mph /  11.1 km/h 89 % 0.00 in /  0 mm
02:15 64.8 °F /  18.2 °C 61.5 °F /  16.4 °C 29.58 in /  1001.6 hPa SSW 5.0 mph /  8 km/h 8.1 mph /  13 km/h 89 % 0.00 in /  0 mm
02:20 64.9 °F /  18.3 °C 61.6 °F /  16.4 °C 29.58 in /  1001.6 hPa SW 8.9 mph /  14.3 km/h 11.5 mph /  18.5 km/h 89 % 0.00 in /  0 mm
02:25 64.9 °F /  18.3 °C 61.6 °F /  16.4 °C 29.58 in /  1001.6 hPa SSW 7.1 mph /  11.4 km/h 16.1 mph /  25.9 km/h 89 % 0.00 in /  0 mm
02:30 64.9 °F /  18.3 °C 61.6 °F /  16.4 °C 29.59 in /  1001.9 hPa South 10.0 mph /  16.1 km/h 11.5 mph /  18.5 km/h 89 % 0.00 in /  0 mm
02:35 64.9 °F /  18.3 °C 61.6 °F /  16.4 °C 29.58 in /  1001.6 hPa SW 6.6 mph /  10.6 km/h 14.0 mph /  22.5 km/h 89 % 0.00 in /  0 mm
02:40 64.9 °F /  18.3 °C 61.6 °F /  16.4 °C 29.58 in /  1001.6 hPa South 8.6 mph /  13.8 km/h 11.5 mph /  18.5 km/h 89 % 0.00 in /  0 mm
02:46 64.9 °F /  18.3 °C 61.6 °F /  16.4 °C 29.57 in /  1001.2 hPa SSW 5.0 mph /  8 km/h 12.0 mph /  19.3 km/h 89 % 0.00 in /  0 mm
02:51 64.8 °F /  18.2 °C 61.5 °F /  16.4 °C 29.57 in /  1001.2 hPa SSW 3.0 mph /  4.8 km/h 12.0 mph /  19.3 km/h 89 % 0.00 in /  0 mm
02:56 64.8 °F /  18.2 °C 61.5 °F /  16.4 °C 29.58 in /  1001.6 hPa SSW 3.9 mph /  6.3 km/h 6.9 mph /  11.1 km/h 89 % 0.00 in /  0 mm
03:01 64.6 °F /  18.1 °C 61.3 °F /  16.3 °C 29.58 in /  1001.6 hPa SSW 7.3 mph /  11.7 km/h 13.8 mph /  22.2 km/h 89 % 0.00 in /  0 mm
03:06 64.5 °F /  18.1 °C 61.2 °F /  16.2 °C 29.57 in /  1001.2 hPa South 6.7 mph /  10.8 km/h 11.5 mph /  18.5 km/h 89 % 0.00 in /  0 mm
03:11 64.4 °F /  18 °C 61.1 °F /  16.2 °C 29.57 in /  1001.2 hPa South 5.7 mph /  9.2 km/h 8.1 mph /  13 km/h 89 % 0.00 in /  0 mm
03:16 64.2 °F /  17.9 °C 60.9 °F /  16.1 °C 29.57 in /  1001.2 hPa SSE 5.1 mph /  8.2 km/h 8.1 mph /  13 km/h 89 % 0.00 in /  0 mm
03:21 64.1 °F /  17.8 °C 61.1 °F /  16.2 °C 29.57 in /  1001.2 hPa SSW 5.8 mph /  9.3 km/h 8.1 mph /  13 km/h 90 % 0.00 in /  0 mm
03:26 63.9 °F /  17.7 °C 60.9 °F /  16.1 °C 29.57 in /  1001.2 hPa SSW 6.3 mph /  10.1 km/h 11.5 mph /  18.5 km/h 90 % 0.00 in /  0 mm
03:32 63.8 °F /  17.7 °C 60.8 °F /  16 °C 29.57 in /  1001.2 hPa SSW 4.3 mph /  6.9 km/h 10.4 mph /  16.7 km/h 90 % 0.00 in /  0 mm
03:37 63.7 °F /  17.6 °C 60.7 °F /  15.9 °C 29.57 in /  1001.2 hPa SSW 4.7 mph /  7.6 km/h 6.9 mph /  11.1 km/h 90 % 0.00 in /  0 mm
03:42 63.7 °F /  17.6 °C 61.0 °F /  16.1 °C 29.57 in /  1001.2 hPa SSW 5.6 mph /  9 km/h 13.8 mph /  22.2 km/h 91 % 0.00 in /  0 mm
03:47 63.6 °F /  17.6 °C 60.9 °F /  16.1 °C 29.57 in /  1001.2 hPa SW 5.5 mph /  8.9 km/h 10.4 mph /  16.7 km/h 91 % 0.00 in /  0 mm
03:52 63.7 °F /  17.6 °C 61.3 °F /  16.3 °C 29.57 in /  1001.2 hPa South 6.3 mph /  10.1 km/h 11.5 mph /  18.5 km/h 92 % 0.00 in /  0 mm
03:57 63.8 °F /  17.7 °C 61.4 °F /  16.3 °C 29.57 in /  1001.2 hPa South 3.5 mph /  5.6 km/h 7.0 mph /  11.3 km/h 92 % 0.00 in /  0 mm
04:02 63.9 °F /  17.7 °C 61.8 °F /  16.6 °C 29.55 in /  1000.6 hPa SSW 4.8 mph /  7.7 km/h 7.0 mph /  11.3 km/h 93 % 0.00 in /  0 mm
04:07 64.0 °F /  17.8 °C 61.9 °F /  16.6 °C 29.56 in /  1000.9 hPa South 2.7 mph /  4.3 km/h 6.9 mph /  11.1 km/h 93 % 0.00 in /  0 mm
04:12 64.1 °F /  17.8 °C 62.0 °F /  16.7 °C 29.56 in /  1000.9 hPa SSW 5.5 mph /  8.9 km/h 7.0 mph /  11.3 km/h 93 % 0.00 in /  0 mm
04:17 64.1 °F /  17.8 °C 62.0 °F /  16.7 °C 29.55 in /  1000.6 hPa South 4.4 mph /  7.1 km/h 8.1 mph /  13 km/h 93 % 0.00 in /  0 mm
04:22 64.1 °F /  17.8 °C 62.0 °F /  16.7 °C 29.56 in /  1000.9 hPa South 7.9 mph /  12.7 km/h 8.1 mph /  13 km/h 93 % 0.00 in /  0 mm
04:28 64.1 °F /  17.8 °C 62.0 °F /  16.7 °C 29.57 in /  1001.2 hPa SSW 5.6 mph /  9 km/h 9.2 mph /  14.8 km/h 93 % 0.00 in /  0 mm
04:33 64.0 °F /  17.8 °C 61.9 °F /  16.6 °C 29.56 in /  1000.9 hPa South 6.8 mph /  10.9 km/h 15.0 mph /  24.1 km/h 93 % 0.00 in /  0 mm
04:38 63.8 °F /  17.7 °C 61.7 °F /  16.5 °C 29.56 in /  1000.9 hPa SSW 6.3 mph /  10.1 km/h 13.8 mph /  22.2 km/h 93 % 0.00 in /  0 mm
04:43 63.6 °F /  17.6 °C 61.5 °F /  16.4 °C 29.56 in /  1000.9 hPa SE 3.5 mph /  5.6 km/h 10.0 mph /  16.1 km/h 93 % 0.00 in /  0 mm
04:48 63.4 °F /  17.4 °C 61.3 °F /  16.3 °C 29.56 in /  1000.9 hPa South 5.0 mph /  8 km/h 12.7 mph /  20.4 km/h 93 % 0.00 in /  0 mm
04:53 63.1 °F /  17.3 °C 61.0 °F /  16.1 °C 29.55 in /  1000.6 hPa SSW 2.9 mph /  4.7 km/h 7.0 mph /  11.3 km/h 93 % 0.00 in /  0 mm
04:58 63.0 °F /  17.2 °C 61.2 °F /  16.2 °C 29.55 in /  1000.6 hPa South 4.9 mph /  7.9 km/h 7.0 mph /  11.3 km/h 94 % 0.00 in /  0 mm
05:03 62.9 °F /  17.2 °C 61.1 °F /  16.2 °C 29.54 in /  1000.2 hPa South 3.3 mph /  5.3 km/h 6.0 mph /  9.7 km/h 94 % 0.00 in /  0 mm
05:08 62.9 °F /  17.2 °C 61.1 °F /  16.2 °C 29.56 in /  1000.9 hPa SSE 3.9 mph /  6.3 km/h 10.4 mph /  16.7 km/h 94 % 0.00 in /  0 mm
05:13 62.8 °F /  17.1 °C 61.0 °F /  16.1 °C 29.56 in /  1000.9 hPa SSW 5.2 mph /  8.4 km/h 8.1 mph /  13 km/h 94 % 0.00 in /  0 mm
05:18 62.7 °F /  17.1 °C 61.2 °F /  16.2 °C 29.56 in /  1000.9 hPa South 4.0 mph /  6.4 km/h 7.0 mph /  11.3 km/h 95 % 0.00 in /  0 mm
05:24 62.8 °F /  17.1 °C 61.3 °F /  16.3 °C 29.56 in /  1000.9 hPa South 4.9 mph /  7.9 km/h 7.0 mph /  11.3 km/h 95 % 0.00 in /  0 mm
05:29 62.9 °F /  17.2 °C 61.4 °F /  16.3 °C 29.56 in /  1000.9 hPa SSW 4.4 mph /  7.1 km/h 10.4 mph /  16.7 km/h 95 % 0.00 in /  0 mm
05:34 63.0 °F /  17.2 °C 61.5 °F /  16.4 °C 29.56 in /  1000.9 hPa South 4.6 mph /  7.4 km/h 6.9 mph /  11.1 km/h 95 % 0.00 in /  0 mm
05:39 63.0 °F /  17.2 °C 61.5 °F /  16.4 °C 29.56 in /  1000.9 hPa SSW 4.8 mph /  7.7 km/h 9.2 mph /  14.8 km/h 95 % 0.00 in /  0 mm
05:44 63.1 °F /  17.3 °C 61.6 °F /  16.4 °C 29.57 in /  1001.2 hPa South 4.3 mph /  6.9 km/h 8.1 mph /  13 km/h 95 % 0.00 in /  0 mm
05:49 63.1 °F /  17.3 °C 61.6 °F /  16.4 °C 29.57 in /  1001.2 hPa SW 4.8 mph /  7.7 km/h 8.1 mph /  13 km/h 95 % 0.00 in /  0 mm
05:54 63.1 °F /  17.3 °C 61.6 °F /  16.4 °C 29.57 in /  1001.2 hPa SSW 4.4 mph /  7.1 km/h 8.1 mph /  13 km/h 95 % 0.00 in /  0 mm
05:59 63.1 °F /  17.3 °C 61.6 °F /  16.4 °C 29.57 in /  1001.2 hPa SSW 5.7 mph /  9.2 km/h 9.0 mph /  14.5 km/h 95 % 0.00 in /  0 mm
06:04 63.1 °F /  17.3 °C 61.6 °F /  16.4 °C 29.56 in /  1000.9 hPa SSW 3.5 mph /  5.6 km/h 6.9 mph /  11.1 km/h 95 % 0.00 in /  0 mm
06:09 63.0 °F /  17.2 °C 61.2 °F /  16.2 °C 29.57 in /  1001.2 hPa SW 3.5 mph /  5.6 km/h 9.2 mph /  14.8 km/h 94 % 0.00 in /  0 mm
06:14 63.1 °F /  17.3 °C 61.3 °F /  16.3 °C 29.56 in /  1000.9 hPa South 3.3 mph /  5.3 km/h 6.9 mph /  11.1 km/h 94 % 0.00 in /  0 mm
06:19 63.1 °F /  17.3 °C 61.3 °F /  16.3 °C 29.56 in /  1000.9 hPa South 3.6 mph /  5.8 km/h 5.8 mph /  9.3 km/h 94 % 0.00 in /  0 mm
06:25 63.2 °F /  17.3 °C 61.4 °F /  16.3 °C 29.56 in /  1000.9 hPa South 3.4 mph /  5.5 km/h 10.4 mph /  16.7 km/h 94 % 0.00 in /  0 mm
06:30 63.3 °F /  17.4 °C 61.5 °F /  16.4 °C 29.55 in /  1000.6 hPa South 5.5 mph /  8.9 km/h 12.7 mph /  20.4 km/h 94 % 0.00 in /  0 mm
06:35 63.4 °F /  17.4 °C 61.9 °F /  16.6 °C 29.56 in /  1000.9 hPa SSE 2.2 mph /  3.5 km/h 4.6 mph /  7.4 km/h 95 % 0.00 in /  0 mm
06:40 63.5 °F /  17.5 °C 62.0 °F /  16.7 °C 29.56 in /  1000.9 hPa SW 3.9 mph /  6.3 km/h 10.0 mph /  16.1 km/h 95 % 0.00 in /  0 mm
06:45 63.5 °F /  17.5 °C 61.7 °F /  16.5 °C 29.56 in /  1000.9 hPa West 2.8 mph /  4.5 km/h 6.9 mph /  11.1 km/h 94 % 0.00 in /  0 mm
06:50 63.5 °F /  17.5 °C 61.7 °F /  16.5 °C 29.56 in /  1000.9 hPa SW 4.6 mph /  7.4 km/h 6.0 mph /  9.7 km/h 94 % 0.00 in /  0 mm
06:55 63.4 °F /  17.4 °C 61.6 °F /  16.4 °C 29.55 in /  1000.6 hPa SSW 5.4 mph /  8.7 km/h 8.1 mph /  13 km/h 94 % 0.00 in /  0 mm
07:00 63.4 °F /  17.4 °C 61.6 °F /  16.4 °C 29.56 in /  1000.9 hPa SSW 5.2 mph /  8.4 km/h 10.4 mph /  16.7 km/h 94 % 0.00 in /  0 mm
07:05 63.3 °F /  17.4 °C 61.5 °F /  16.4 °C 29.56 in /  1000.9 hPa SSW 4.1 mph /  6.6 km/h 5.0 mph /  8 km/h 94 % 0.00 in /  0 mm
07:10 63.2 °F /  17.3 °C 61.4 °F /  16.3 °C 29.55 in /  1000.6 hPa South 4.4 mph /  7.1 km/h 8.0 mph /  12.9 km/h 94 % 0.00 in /  0 mm
07:15 63.0 °F /  17.2 °C 60.9 °F /  16.1 °C 29.55 in /  1000.6 hPa South 3.8 mph /  6.1 km/h 6.0 mph /  9.7 km/h 93 % 0.00 in /  0 mm
07:21 62.9 °F /  17.2 °C 60.8 °F /  16 °C 29.55 in /  1000.6 hPa South 5.0 mph /  8 km/h 12.0 mph /  19.3 km/h 93 % 0.00 in /  0 mm
07:26 62.9 °F /  17.2 °C 61.1 °F /  16.2 °C 29.55 in /  1000.6 hPa South 3.0 mph /  4.8 km/h 8.0 mph /  12.9 km/h 94 % 0.00 in /  0 mm
07:30 62.9 °F /  17.2 °C 61.1 °F /  16.2 °C 29.55 in /  1000.6 hPa SSW 5.0 mph /  8 km/h 10.0 mph /  16.1 km/h 94 % 0.00 in /  0 mm
07:35 63.0 °F /  17.2 °C 61.2 °F /  16.2 °C 29.55 in /  1000.6 hPa SSW 6.0 mph /  9.7 km/h 10.0 mph /  16.1 km/h 94 % 0.00 in /  0 mm
07:40 63.0 °F /  17.2 °C 61.3 °F /  16.3 °C 29.55 in /  1000.6 hPa SSW 3.0 mph /  4.8 km/h 9.0 mph /  14.5 km/h 94 % 0.00 in /  0 mm
07:45 63.2 °F /  17.3 °C 61.4 °F /  16.3 °C 29.54 in /  1000.2 hPa South 5.0 mph /  8 km/h 8.0 mph /  12.9 km/h 94 % 0.00 in /  0 mm
07:50 63.4 °F /  17.4 °C 61.6 °F /  16.4 °C 29.54 in /  1000.2 hPa SSW 5.3 mph /  8.5 km/h 11.5 mph /  18.5 km/h 94 % 0.00 in /  0 mm
07:56 63.7 °F /  17.6 °C 61.9 °F /  16.6 °C 29.54 in /  1000.2 hPa South 6.0 mph /  9.7 km/h 12.0 mph /  19.3 km/h 94 % 0.00 in /  0 mm
08:01 63.8 °F /  17.7 °C 62.0 °F /  16.7 °C 29.54 in /  1000.2 hPa SSW 5.5 mph /  8.9 km/h 9.2 mph /  14.8 km/h 94 % 0.00 in /  0 mm
08:06 63.9 °F /  17.7 °C 62.1 °F /  16.7 °C 29.54 in /  1000.2 hPa SW 4.6 mph /  7.4 km/h 10.4 mph /  16.7 km/h 94 % 0.00 in /  0 mm
08:11 64.2 °F /  17.9 °C 62.4 °F /  16.9 °C 29.55 in /  1000.6 hPa SSW 5.8 mph /  9.3 km/h 8.1 mph /  13 km/h 94 % 0.00 in /  0 mm
08:16 64.4 °F /  18 °C 62.3 °F /  16.8 °C 29.55 in /  1000.6 hPa SSW 6.6 mph /  10.6 km/h 9.2 mph /  14.8 km/h 93 % 0.00 in /  0 mm
08:21 64.4 °F /  18 °C 62.3 °F /  16.8 °C 29.55 in /  1000.6 hPa SW 5.0 mph /  8 km/h 10.0 mph /  16.1 km/h 93 % 0.00 in /  0 mm
08:26 64.4 °F /  18 °C 62.3 °F /  16.8 °C 29.54 in /  1000.2 hPa SSW 4.8 mph /  7.7 km/h 9.0 mph /  14.5 km/h 93 % 0.00 in /  0 mm
08:31 64.4 °F /  18 °C 62.3 °F /  16.8 °C 29.54 in /  1000.2 hPa SSW 3.5 mph /  5.6 km/h 5.8 mph /  9.3 km/h 93 % 0.00 in /  0 mm
08:36 64.6 °F /  18.1 °C 62.5 °F /  16.9 °C 29.54 in /  1000.2 hPa SSW 3.9 mph /  6.3 km/h 5.8 mph /  9.3 km/h 93 % 0.00 in /  0 mm
08:41 64.9 °F /  18.3 °C 62.8 °F /  17.1 °C 29.54 in /  1000.2 hPa WSW 1.7 mph /  2.7 km/h 4.0 mph /  6.4 km/h 93 % 0.00 in /  0 mm
08:46 65.5 °F /  18.6 °C 63.7 °F /  17.6 °C 29.53 in /  999.9 hPa SW 2.7 mph /  4.3 km/h 7.0 mph /  11.3 km/h 94 % 0.00 in /  0 mm
08:51 65.8 °F /  18.8 °C 63.7 °F /  17.6 °C 29.54 in /  1000.2 hPa SSW 5.3 mph /  8.5 km/h 11.5 mph /  18.5 km/h 93 % 0.00 in /  0 mm
08:57 66.1 °F /  18.9 °C 63.7 °F /  17.6 °C 29.55 in /  1000.6 hPa WSW 4.2 mph /  6.8 km/h 5.0 mph /  8 km/h 92 % 0.00 in /  0 mm
09:02 66.3 °F /  19.1 °C 63.6 °F /  17.6 °C 29.55 in /  1000.6 hPa WSW 4.6 mph /  7.4 km/h 9.2 mph /  14.8 km/h 91 % 0.00 in /  0 mm
09:07 66.3 °F /  19.1 °C 63.6 °F /  17.6 °C 29.55 in /  1000.6 hPa SW 5.2 mph /  8.4 km/h 8.1 mph /  13 km/h 91 % 0.00 in /  0 mm
09:12 66.3 °F /  19.1 °C 63.6 °F /  17.6 °C 29.54 in /  1000.2 hPa SW 1.3 mph /  2.1 km/h 4.6 mph /  7.4 km/h 91 % 0.00 in /  0 mm
09:17 66.4 °F /  19.1 °C 63.7 °F /  17.6 °C 29.54 in /  1000.2 hPa SSW 4.6 mph /  7.4 km/h 10.4 mph /  16.7 km/h 91 % 0.00 in /  0 mm
09:22 66.7 °F /  19.3 °C 64.0 °F /  17.8 °C 29.54 in /  1000.2 hPa South 1.2 mph /  1.9 km/h 6.9 mph /  11.1 km/h 91 % 0.00 in /  0 mm
09:27 67.2 °F /  19.6 °C 64.8 °F /  18.2 °C 29.54 in /  1000.2 hPa South 4.2 mph /  6.8 km/h 5.8 mph /  9.3 km/h 92 % 0.00 in /  0 mm
09:32 67.7 °F /  19.8 °C 64.7 °F /  18.2 °C 29.54 in /  1000.2 hPa SSW 2.8 mph /  4.5 km/h 5.8 mph /  9.3 km/h 90 % 0.00 in /  0 mm
09:37 68.2 °F /  20.1 °C 65.2 °F /  18.4 °C 29.54 in /  1000.2 hPa SSW 4.7 mph /  7.6 km/h 6.9 mph /  11.1 km/h 90 % 0.00 in /  0 mm
09:42 68.7 °F /  20.4 °C 65.3 °F /  18.5 °C 29.54 in /  1000.2 hPa SW 3.9 mph /  6.3 km/h 6.9 mph /  11.1 km/h 89 % 0.00 in /  0 mm
09:47 69.4 °F /  20.8 °C 65.7 °F /  18.7 °C 29.54 in /  1000.2 hPa SSW 0.9 mph /  1.4 km/h 5.8 mph /  9.3 km/h 88 % 0.00 in /  0 mm
09:53 70.1 °F /  21.2 °C 66.0 °F /  18.9 °C 29.53 in /  999.9 hPa SW 5.6 mph /  9 km/h 10.4 mph /  16.7 km/h 87 % 0.00 in /  0 mm
09:58 70.9 °F /  21.6 °C 66.8 °F /  19.3 °C 29.53 in /  999.9 hPa SW 1.7 mph /  2.7 km/h 3.5 mph /  5.6 km/h 87 % 0.00 in /  0 mm
10:03 71.5 °F /  21.9 °C 66.4 °F /  19.1 °C 29.53 in /  999.9 hPa South 2.0 mph /  3.2 km/h 5.8 mph /  9.3 km/h 84 % 0.00 in /  0 mm
10:08 72.1 °F /  22.3 °C 66.3 °F /  19.1 °C 29.52 in /  999.5 hPa SW 6.2 mph /  10 km/h 10.4 mph /  16.7 km/h 82 % 0.00 in /  0 mm
10:13 72.4 °F /  22.4 °C 65.9 °F /  18.8 °C 29.52 in /  999.5 hPa SW 4.3 mph /  6.9 km/h 8.1 mph /  13 km/h 80 % 0.00 in /  0 mm
10:18 72.8 °F /  22.7 °C 67.0 °F /  19.4 °C 29.52 in /  999.5 hPa SSW 4.2 mph /  6.8 km/h 6.9 mph /  11.1 km/h 82 % 0.00 in /  0 mm
10:23 73.5 °F /  23.1 °C 67.7 °F /  19.8 °C 29.52 in /  999.5 hPa SW 1.5 mph /  2.4 km/h 4.0 mph /  6.4 km/h 82 % 0.00 in /  0 mm
10:28 74.1 °F /  23.4 °C 67.5 °F /  19.7 °C 29.51 in /  999.2 hPa WSW 1.8 mph /  2.9 km/h 4.6 mph /  7.4 km/h 80 % 0.00 in /  0 mm
10:33 74.7 °F /  23.7 °C 67.0 °F /  19.4 °C 29.51 in /  999.2 hPa WSW 4.4 mph /  7.1 km/h 7.0 mph /  11.3 km/h 77 % 0.00 in /  0 mm
10:38 75.0 °F /  23.9 °C 66.5 °F /  19.2 °C 29.52 in /  999.5 hPa SW 1.2 mph /  1.9 km/h 4.6 mph /  7.4 km/h 75 % 0.00 in /  0 mm
10:43 75.2 °F /  24 °C 66.3 °F /  19.1 °C 29.52 in /  999.5 hPa WSW 1.7 mph /  2.7 km/h 6.9 mph /  11.1 km/h 74 % 0.00 in /  0 mm
10:49 75.3 °F /  24.1 °C 66.8 °F /  19.3 °C 29.52 in /  999.5 hPa SW 3.3 mph /  5.3 km/h 4.6 mph /  7.4 km/h 75 % 0.00 in /  0 mm
10:54 75.3 °F /  24.1 °C 66.4 °F /  19.1 °C 29.52 in /  999.5 hPa SW 3.1 mph /  5 km/h 5.8 mph /  9.3 km/h 74 % 0.00 in /  0 mm
10:59 75.7 °F /  24.3 °C 66.4 °F /  19.1 °C 29.51 in /  999.2 hPa SSW 3.9 mph /  6.3 km/h 6.9 mph /  11.1 km/h 73 % 0.00 in /  0 mm
11:04 76.0 °F /  24.4 °C 65.9 °F /  18.8 °C 29.52 in /  999.5 hPa SSW 6.7 mph /  10.8 km/h 9.2 mph /  14.8 km/h 71 % 0.00 in /  0 mm
11:09 76.3 °F /  24.6 °C 65.4 °F /  18.6 °C 29.52 in /  999.5 hPa WSW 5.1 mph /  8.2 km/h 6.9 mph /  11.1 km/h 69 % 0.00 in /  0 mm
11:14 76.5 °F /  24.7 °C 63.9 °F /  17.7 °C 29.51 in /  999.2 hPa SW 7.8 mph /  12.6 km/h 11.5 mph /  18.5 km/h 65 % 0.00 in /  0 mm
11:15 76.6 °F /  24.8 °C 64.4 °F /  18 °C 29.51 in /  999.2 hPa SW 3.8 mph /  6.1 km/h 9.2 mph /  14.8 km/h 66 % 0.00 in /  0 mm
11:20 76.8 °F /  24.9 °C 63.2 °F /  17.3 °C 29.51 in /  999.2 hPa WSW 3.0 mph /  4.8 km/h 9.0 mph /  14.5 km/h 63 % 0.00 in /  0 mm
11:25 76.7 °F /  24.8 °C 60.8 °F /  16 °C 29.52 in /  999.5 hPa WNW 3.7 mph /  6 km/h 8.1 mph /  13 km/h 58 % 0.00 in /  0 mm
11:31 77.0 °F /  25 °C 61.1 °F /  16.2 °C 29.51 in /  999.2 hPa WSW 5.0 mph /  8 km/h 9.0 mph /  14.5 km/h 58 % 0.00 in /  0 mm
11:36 77.3 °F /  25.2 °C 61.9 °F /  16.6 °C 29.51 in /  999.2 hPa WSW 6.0 mph /  9.7 km/h 12.0 mph /  19.3 km/h 59 % 0.00 in /  0 mm
11:41 77.4 °F /  25.2 °C 61.9 °F /  16.6 °C 29.51 in /  999.2 hPa West 2.0 mph /  3.2 km/h 7.0 mph /  11.3 km/h 59 % 0.00 in /  0 mm
11:46 77.3 °F /  25.2 °C 61.4 °F /  16.3 °C 29.51 in /  999.2 hPa West 5.3 mph /  8.5 km/h 5.8 mph /  9.3 km/h 58 % 0.00 in /  0 mm
11:51 76.9 °F /  24.9 °C 61.0 °F /  16.1 °C 29.50 in /  998.9 hPa WSW 3.0 mph /  4.8 km/h 8.0 mph /  12.9 km/h 58 % 0.00 in /  0 mm
11:56 76.8 °F /  24.9 °C 61.4 °F /  16.3 °C 29.51 in /  999.2 hPa WSW 3.0 mph /  4.8 km/h 10.0 mph /  16.1 km/h 59 % 0.00 in /  0 mm
12:01 76.3 °F /  24.6 °C 60.4 °F /  15.8 °C 29.50 in /  998.9 hPa SW 5.4 mph /  8.7 km/h 10.4 mph /  16.7 km/h 58 % 0.00 in /  0 mm
12:06 76.2 °F /  24.6 °C 59.4 °F /  15.2 °C 29.51 in /  999.2 hPa WSW 3.9 mph /  6.3 km/h 9.2 mph /  14.8 km/h 56 % 0.00 in /  0 mm
12:11 76.3 °F /  24.6 °C 59.9 °F /  15.5 °C 29.51 in /  999.2 hPa WSW 1.9 mph /  3.1 km/h 3.5 mph /  5.6 km/h 57 % 0.00 in /  0 mm
12:16 76.7 °F /  24.8 °C 59.3 °F /  15.2 °C 29.51 in /  999.2 hPa West 3.1 mph /  5 km/h 9.0 mph /  14.5 km/h 55 % 0.00 in /  0 mm
12:21 77.2 °F /  25.1 °C 61.3 °F /  16.3 °C 29.50 in /  998.9 hPa NW 6.4 mph /  10.3 km/h 10.4 mph /  16.7 km/h 58 % 0.00 in /  0 mm
12:26 77.6 °F /  25.3 °C 60.2 °F /  15.7 °C 29.51 in /  999.2 hPa WSW 4.6 mph /  7.4 km/h 10.4 mph /  16.7 km/h 55 % 0.00 in /  0 mm
12:31 77.7 °F /  25.4 °C 60.2 °F /  15.7 °C 29.51 in /  999.2 hPa West 4.2 mph /  6.8 km/h 12.7 mph /  20.4 km/h 55 % 0.00 in /  0 mm
12:36 77.8 °F /  25.4 °C 61.3 °F /  16.3 °C 29.51 in /  999.2 hPa SW 2.5 mph /  4 km/h 9.2 mph /  14.8 km/h 57 % 0.00 in /  0 mm
12:41 77.8 °F /  25.4 °C 59.3 °F /  15.2 °C 29.51 in /  999.2 hPa NW 6.6 mph /  10.6 km/h 13.8 mph /  22.2 km/h 53 % 0.00 in /  0 mm
12:46 77.9 °F /  25.5 °C 59.4 °F /  15.2 °C 29.51 in /  999.2 hPa WNW 5.2 mph /  8.4 km/h 8.1 mph /  13 km/h 53 % 0.00 in /  0 mm
12:51 78.1 °F /  25.6 °C 59.0 °F /  15 °C 29.51 in /  999.2 hPa SSW 4.7 mph /  7.6 km/h 8.1 mph /  13 km/h 52 % 0.00 in /  0 mm
12:57 78.4 °F /  25.8 °C 58.2 °F /  14.6 °C 29.51 in /  999.2 hPa SW 4.0 mph /  6.4 km/h 12.7 mph /  20.4 km/h 50 % 0.00 in /  0 mm
13:02 78.7 °F /  25.9 °C 57.4 °F /  14.1 °C 29.51 in /  999.2 hPa WNW 4.8 mph /  7.7 km/h 10.4 mph /  16.7 km/h 48 % 0.00 in /  0 mm
13:07 78.7 °F /  25.9 °C 56.8 °F /  13.8 °C 29.51 in /  999.2 hPa WNW 6.0 mph /  9.7 km/h 10.4 mph /  16.7 km/h 47 % 0.00 in /  0 mm
13:12 78.2 °F /  25.7 °C 56.9 °F /  13.8 °C 29.51 in /  999.2 hPa WSW 5.9 mph /  9.5 km/h 9.2 mph /  14.8 km/h 48 % 0.00 in /  0 mm
13:17 77.5 °F /  25.3 °C 57.9 °F /  14.4 °C 29.51 in /  999.2 hPa NW 4.5 mph /  7.2 km/h 11.0 mph /  17.7 km/h 51 % 0.00 in /  0 mm
13:22 77.1 °F /  25.1 °C 56.5 °F /  13.6 °C 29.52 in /  999.5 hPa WNW 5.6 mph /  9 km/h 8.1 mph /  13 km/h 49 % 0.00 in /  0 mm
13:27 77.0 °F /  25 °C 56.4 °F /  13.6 °C 29.52 in /  999.5 hPa South 5.1 mph /  8.2 km/h 6.9 mph /  11.1 km/h 49 % 0.00 in /  0 mm
13:31 76.9 °F /  24.9 °C 56.3 °F /  13.5 °C 29.52 in /  999.5 hPa WSW 6.7 mph /  10.8 km/h 12.7 mph /  20.4 km/h 49 % 0.00 in /  0 mm
13:36 76.8 °F /  24.9 °C 56.8 °F /  13.8 °C 29.51 in /  999.2 hPa SW 7.0 mph /  11.3 km/h 16.0 mph /  25.7 km/h 50 % 0.00 in /  0 mm
13:41 77.0 °F /  25 °C 56.4 °F /  13.6 °C 29.51 in /  999.2 hPa SW 7.0 mph /  11.3 km/h 15.0 mph /  24.1 km/h 49 % 0.00 in /  0 mm
13:46 77.1 °F /  25.1 °C 55.3 °F /  12.9 °C 29.51 in /  999.2 hPa WSW 8.0 mph /  12.9 km/h 18.0 mph /  29 km/h 47 % 0.00 in /  0 mm
13:51 76.7 °F /  24.8 °C 55.0 °F /  12.8 °C 29.51 in /  999.2 hPa West 7.0 mph /  11.3 km/h 20.0 mph /  32.2 km/h 47 % 0.00 in /  0 mm
13:56 76.2 °F /  24.6 °C 54.5 °F /  12.5 °C 29.51 in /  999.2 hPa WSW 8.0 mph /  12.9 km/h 20.0 mph /  32.2 km/h 47 % 0.00 in /  0 mm
14:01 76.1 °F /  24.5 °C 55.0 °F /  12.8 °C 29.51 in /  999.2 hPa WSW 6.5 mph /  10.5 km/h 18.4 mph /  29.6 km/h 48 % 0.00 in /  0 mm
14:06 76.3 °F /  24.6 °C 55.7 °F /  13.2 °C 29.51 in /  999.2 hPa WSW 5.0 mph /  8 km/h 21.0 mph /  33.8 km/h 49 % 0.00 in /  0 mm
14:11 76.3 °F /  24.6 °C 54.6 °F /  12.6 °C 29.51 in /  999.2 hPa WSW 9.0 mph /  14.5 km/h 21.0 mph /  33.8 km/h 47 % 0.00 in /  0 mm
14:16 76.3 °F /  24.6 °C 55.2 °F /  12.9 °C 29.52 in /  999.5 hPa West 7.0 mph /  11.3 km/h 17.0 mph /  27.4 km/h 48 % 0.00 in /  0 mm
14:21 76.2 °F /  24.6 °C 55.6 °F /  13.1 °C 29.52 in /  999.5 hPa WSW 8.0 mph /  12.9 km/h 16.0 mph /  25.7 km/h 49 % 0.00 in /  0 mm
14:26 76.1 °F /  24.5 °C 55.5 °F /  13.1 °C 29.51 in /  999.2 hPa WSW 6.0 mph /  9.7 km/h 20.0 mph /  32.2 km/h 49 % 0.00 in /  0 mm
14:31 75.7 °F /  24.3 °C 55.2 °F /  12.9 °C 29.51 in /  999.2 hPa WSW 6.8 mph /  10.9 km/h 15.0 mph /  24.1 km/h 49 % 0.00 in /  0 mm
14:36 75.8 °F /  24.3 °C 55.8 °F /  13.2 °C 29.51 in /  999.2 hPa WSW 7.0 mph /  11.3 km/h 13.0 mph /  20.9 km/h 50 % 0.00 in /  0 mm
14:41 76.0 °F /  24.4 °C 56.0 °F /  13.3 °C 29.51 in /  999.2 hPa West 8.0 mph /  12.9 km/h 14.0 mph /  22.5 km/h 50 % 0.00 in /  0 mm
14:46 76.2 °F /  24.6 °C 55.6 °F /  13.1 °C 29.51 in /  999.2 hPa WSW 6.0 mph /  9.7 km/h 17.0 mph /  27.4 km/h 49 % 0.00 in /  0 mm
14:51 76.4 °F /  24.7 °C 54.7 °F /  12.6 °C 29.51 in /  999.2 hPa WSW 8.0 mph /  12.9 km/h 16.0 mph /  25.7 km/h 47 % 0.00 in /  0 mm
14:56 76.3 °F /  24.6 °C 54.6 °F /  12.6 °C 29.51 in /  999.2 hPa WSW 7.2 mph /  11.6 km/h 13.8 mph /  22.2 km/h 47 % 0.00 in /  0 mm
15:01 76.5 °F /  24.7 °C 54.8 °F /  12.7 °C 29.51 in /  999.2 hPa West 4.8 mph /  7.7 km/h 13.8 mph /  22.2 km/h 47 % 0.00 in /  0 mm
15:06 76.7 °F /  24.8 °C 55.0 °F /  12.8 °C 29.51 in /  999.2 hPa WSW 11.0 mph /  17.7 km/h 14.0 mph /  22.5 km/h 47 % 0.00 in /  0 mm
15:11 76.9 °F /  24.9 °C 55.1 °F /  12.8 °C 29.51 in /  999.2 hPa SW 7.5 mph /  12.1 km/h 13.8 mph /  22.2 km/h 47 % 0.00 in /  0 mm
15:16 76.8 °F /  24.9 °C 55.0 °F /  12.8 °C 29.51 in /  999.2 hPa SW 6.9 mph /  11.1 km/h 16.0 mph /  25.7 km/h 47 % 0.00 in /  0 mm
15:21 76.4 °F /  24.7 °C 54.7 °F /  12.6 °C 29.51 in /  999.2 hPa West 8.7 mph /  14 km/h 18.0 mph /  29 km/h 47 % 0.00 in /  0 mm
15:27 76.2 °F /  24.6 °C 53.3 °F /  11.8 °C 29.51 in /  999.2 hPa West 12.1 mph /  19.5 km/h 24.0 mph /  38.6 km/h 45 % 0.00 in /  0 mm
15:32 75.9 °F /  24.4 °C 53.6 °F /  12 °C 29.51 in /  999.2 hPa WSW 11.7 mph /  18.8 km/h 20.7 mph /  33.3 km/h 46 % 0.00 in /  0 mm
15:37 75.9 °F /  24.4 °C 53.6 °F /  12 °C 29.51 in /  999.2 hPa SW 9.9 mph /  15.9 km/h 21.9 mph /  35.2 km/h 46 % 0.00 in /  0 mm
15:42 75.9 °F /  24.4 °C 53.0 °F /  11.7 °C 29.51 in /  999.2 hPa SSW 9.6 mph /  15.4 km/h 18.4 mph /  29.6 km/h 45 % 0.00 in /  0 mm
15:47 76.0 °F /  24.4 °C 53.1 °F /  11.7 °C 29.51 in /  999.2 hPa West 8.4 mph /  13.5 km/h 12.0 mph /  19.3 km/h 45 % 0.00 in /  0 mm
15:52 76.2 °F /  24.6 °C 53.3 °F /  11.8 °C 29.51 in /  999.2 hPa WSW 7.1 mph /  11.4 km/h 13.8 mph /  22.2 km/h 45 % 0.00 in /  0 mm
15:57 75.9 °F /  24.4 °C 53.6 °F /  12 °C 29.51 in /  999.2 hPa SW 8.1 mph /  13 km/h 18.4 mph /  29.6 km/h 46 % 0.00 in /  0 mm
16:02 75.7 °F /  24.3 °C 52.8 °F /  11.6 °C 29.51 in /  999.2 hPa West 10.1 mph /  16.3 km/h 26.5 mph /  42.6 km/h 45 % 0.00 in /  0 mm
16:07 75.7 °F /  24.3 °C 52.8 °F /  11.6 °C 29.52 in /  999.5 hPa WSW 8.0 mph /  12.9 km/h 14.0 mph /  22.5 km/h 45 % 0.00 in /  0 mm
16:12 75.8 °F /  24.3 °C 53.5 °F /  11.9 °C 29.52 in /  999.5 hPa WSW 7.9 mph /  12.7 km/h 12.7 mph /  20.4 km/h 46 % 0.00 in /  0 mm
16:17 75.7 °F /  24.3 °C 52.8 °F /  11.6 °C 29.52 in /  999.5 hPa WSW 7.0 mph /  11.3 km/h 13.8 mph /  22.2 km/h 45 % 0.00 in /  0 mm
16:22 75.6 °F /  24.2 °C 52.8 °F /  11.6 °C 29.51 in /  999.2 hPa SSW 7.0 mph /  11.3 km/h 19.6 mph /  31.5 km/h 45 % 0.00 in /  0 mm
16:28 75.3 °F /  24.1 °C 51.9 °F /  11.1 °C 29.52 in /  999.5 hPa SW 8.9 mph /  14.3 km/h 17.3 mph /  27.8 km/h 44 % 0.00 in /  0 mm
16:33 75.0 °F /  23.9 °C 52.8 °F /  11.6 °C 29.52 in /  999.5 hPa WSW 7.9 mph /  12.7 km/h 21.0 mph /  33.8 km/h 46 % 0.00 in /  0 mm
16:38 74.9 °F /  23.8 °C 52.1 °F /  11.2 °C 29.52 in /  999.5 hPa WNW 9.7 mph /  15.6 km/h 15.0 mph /  24.1 km/h 45 % 0.00 in /  0 mm
16:43 74.9 °F /  23.8 °C 52.7 °F /  11.5 °C 29.53 in /  999.9 hPa SW 5.8 mph /  9.3 km/h 18.0 mph /  29 km/h 46 % 0.00 in /  0 mm
16:48 74.8 °F /  23.8 °C 52.0 °F /  11.1 °C 29.53 in /  999.9 hPa West 9.1 mph /  14.6 km/h 18.4 mph /  29.6 km/h 45 % 0.00 in /  0 mm
16:53 74.7 °F /  23.7 °C 51.3 °F /  10.7 °C 29.53 in /  999.9 hPa WSW 10.4 mph /  16.7 km/h 17.3 mph /  27.8 km/h 44 % 0.00 in /  0 mm
16:58 74.7 °F /  23.7 °C 50.7 °F /  10.4 °C 29.53 in /  999.9 hPa WSW 5.4 mph /  8.7 km/h 11.5 mph /  18.5 km/h 43 % 0.00 in /  0 mm
17:03 74.7 °F /  23.7 °C 49.4 °F /  9.7 °C 29.53 in /  999.9 hPa WSW 9.4 mph /  15.1 km/h 20.0 mph /  32.2 km/h 41 % 0.00 in /  0 mm
17:08 74.4 °F /  23.6 °C 47.8 °F /  8.8 °C 29.54 in /  1000.2 hPa WNW 7.8 mph /  12.6 km/h 19.6 mph /  31.5 km/h 39 % 0.00 in /  0 mm
17:13 74.2 °F /  23.4 °C 47.6 °F /  8.7 °C 29.54 in /  1000.2 hPa WSW 10.4 mph /  16.7 km/h 26.5 mph /  42.6 km/h 39 % 0.00 in /  0 mm
17:18 74.0 °F /  23.3 °C 46.8 °F /  8.2 °C 29.54 in /  1000.2 hPa SSW 6.3 mph /  10.1 km/h 15.0 mph /  24.1 km/h 38 % 0.00 in /  0 mm
17:23 73.9 °F /  23.3 °C 46.7 °F /  8.2 °C 29.55 in /  1000.6 hPa SSW 7.5 mph /  12.1 km/h 12.7 mph /  20.4 km/h 38 % 0.00 in /  0 mm
17:28 73.7 °F /  23.2 °C 45.8 °F /  7.7 °C 29.55 in /  1000.6 hPa SW 13.7 mph /  22 km/h 20.7 mph /  33.3 km/h 37 % 0.00 in /  0 mm
17:33 73.6 °F /  23.1 °C 46.4 °F /  8 °C 29.55 in /  1000.6 hPa West 12.8 mph /  20.6 km/h 19.6 mph /  31.5 km/h 38 % 0.00 in /  0 mm
17:38 73.5 °F /  23.1 °C 45.6 °F /  7.6 °C 29.56 in /  1000.9 hPa WSW 11.7 mph /  18.8 km/h 20.7 mph /  33.3 km/h 37 % 0.00 in /  0 mm
17:43 73.4 °F /  23 °C 45.5 °F /  7.5 °C 29.56 in /  1000.9 hPa SSW 9.1 mph /  14.6 km/h 16.1 mph /  25.9 km/h 37 % 0.00 in /  0 mm
17:49 73.2 °F /  22.9 °C 46.1 °F /  7.8 °C 29.56 in /  1000.9 hPa WNW 8.3 mph /  13.4 km/h 17.0 mph /  27.4 km/h 38 % 0.00 in /  0 mm
17:54 73.0 °F /  22.8 °C 45.9 °F /  7.7 °C 29.57 in /  1001.2 hPa WSW 10.7 mph /  17.2 km/h 27.6 mph /  44.4 km/h 38 % 0.00 in /  0 mm
17:59 72.6 °F /  22.6 °C 46.2 °F /  7.9 °C 29.57 in /  1001.2 hPa West 10.2 mph /  16.4 km/h 20.7 mph /  33.3 km/h 39 % 0.00 in /  0 mm
18:04 72.2 °F /  22.3 °C 45.9 °F /  7.7 °C 29.58 in /  1001.6 hPa WSW 10.0 mph /  16.1 km/h 17.3 mph /  27.8 km/h 39 % 0.00 in /  0 mm
18:09 71.9 °F /  22.2 °C 46.3 °F /  7.9 °C 29.59 in /  1001.9 hPa WSW 4.6 mph /  7.4 km/h 11.5 mph /  18.5 km/h 40 % 0.00 in /  0 mm
18:14 71.6 °F /  22 °C 46.6 °F /  8.1 °C 29.59 in /  1001.9 hPa WSW 5.4 mph /  8.7 km/h 9.2 mph /  14.8 km/h 41 % 0.00 in /  0 mm
18:19 71.3 °F /  21.8 °C 45.1 °F /  7.3 °C 29.59 in /  1001.9 hPa West 5.2 mph /  8.4 km/h 13.0 mph /  20.9 km/h 39 % 0.00 in /  0 mm
18:24 70.9 °F /  21.6 °C 44.7 °F /  7.1 °C 29.59 in /  1001.9 hPa WSW 10.1 mph /  16.3 km/h 15.0 mph /  24.1 km/h 39 % 0.00 in /  0 mm
18:29 70.6 °F /  21.4 °C 44.4 °F /  6.9 °C 29.59 in /  1001.9 hPa WSW 5.7 mph /  9.2 km/h 18.4 mph /  29.6 km/h 39 % 0.00 in /  0 mm
18:34 70.3 °F /  21.3 °C 44.8 °F /  7.1 °C 29.60 in /  1002.3 hPa SW 9.6 mph /  15.4 km/h 18.4 mph /  29.6 km/h 40 % 0.00 in /  0 mm
18:39 70.0 °F /  21.1 °C 44.6 °F /  7 °C 29.60 in /  1002.3 hPa WSW 5.2 mph /  8.4 km/h 11.5 mph /  18.5 km/h 40 % 0.00 in /  0 mm
18:44 69.8 °F /  21 °C 43.7 °F /  6.5 °C 29.61 in /  1002.6 hPa South 8.1 mph /  13 km/h 16.1 mph /  25.9 km/h 39 % 0.00 in /  0 mm
18:49 69.6 °F /  20.9 °C 44.2 °F /  6.8 °C 29.61 in /  1002.6 hPa SW 6.3 mph /  10.1 km/h 11.5 mph /  18.5 km/h 40 % 0.00 in /  0 mm
18:54 69.5 °F /  20.8 °C 44.1 °F /  6.7 °C 29.61 in /  1002.6 hPa SW 3.7 mph /  6 km/h 10.4 mph /  16.7 km/h 40 % 0.00 in /  0 mm
18:59 69.2 °F /  20.7 °C 43.8 °F /  6.6 °C 29.62 in /  1002.9 hPa SW 5.9 mph /  9.5 km/h 11.5 mph /  18.5 km/h 40 % 0.00 in /  0 mm
19:04 69.0 °F /  20.6 °C 43.7 °F /  6.5 °C 29.62 in /  1002.9 hPa SW 4.4 mph /  7.1 km/h 12.7 mph /  20.4 km/h 40 % 0.00 in /  0 mm
19:10 68.8 °F /  20.4 °C 43.5 °F /  6.4 °C 29.62 in /  1002.9 hPa WSW 6.8 mph /  10.9 km/h 11.0 mph /  17.7 km/h 40 % 0.00 in /  0 mm
19:15 68.5 °F /  20.3 °C 42.6 °F /  5.9 °C 29.62 in /  1002.9 hPa SW 4.3 mph /  6.9 km/h 9.2 mph /  14.8 km/h 39 % 0.00 in /  0 mm
19:20 68.3 °F /  20.2 °C 42.4 °F /  5.8 °C 29.62 in /  1002.9 hPa WNW 5.2 mph /  8.4 km/h 12.7 mph /  20.4 km/h 39 % 0.00 in /  0 mm
19:25 68.1 °F /  20.1 °C 42.2 °F /  5.7 °C 29.62 in /  1002.9 hPa SW 7.1 mph /  11.4 km/h 10.4 mph /  16.7 km/h 39 % 0.00 in /  0 mm
19:30 67.9 °F /  19.9 °C 42.0 °F /  5.6 °C 29.62 in /  1002.9 hPa WSW 7.7 mph /  12.4 km/h 15.0 mph /  24.1 km/h 39 % 0.00 in /  0 mm
19:35 67.8 °F /  19.9 °C 42.6 °F /  5.9 °C 29.62 in /  1002.9 hPa West 7.2 mph /  11.6 km/h 15.0 mph /  24.1 km/h 40 % 0.00 in /  0 mm
19:40 67.7 °F /  19.8 °C 42.5 °F /  5.8 °C 29.63 in /  1003.3 hPa WSW 4.9 mph /  7.9 km/h 9.2 mph /  14.8 km/h 40 % 0.00 in /  0 mm
19:45 67.6 °F /  19.8 °C 43.1 °F /  6.2 °C 29.63 in /  1003.3 hPa West 8.4 mph /  13.5 km/h 12.7 mph /  20.4 km/h 41 % 0.00 in /  0 mm
19:50 67.4 °F /  19.7 °C 42.9 °F /  6.1 °C 29.63 in /  1003.3 hPa WSW 7.7 mph /  12.4 km/h 12.7 mph /  20.4 km/h 41 % 0.00 in /  0 mm
19:55 67.2 °F /  19.6 °C 43.3 °F /  6.3 °C 29.63 in /  1003.3 hPa WSW 4.1 mph /  6.6 km/h 6.9 mph /  11.1 km/h 42 % 0.00 in /  0 mm
20:00 67.0 °F /  19.4 °C 43.1 °F /  6.2 °C 29.64 in /  1003.6 hPa SW 3.5 mph /  5.6 km/h 6.9 mph /  11.1 km/h 42 % 0.00 in /  0 mm
20:05 66.8 °F /  19.3 °C 43.6 °F /  6.4 °C 29.64 in /  1003.6 hPa SSW 6.3 mph /  10.1 km/h 9.2 mph /  14.8 km/h 43 % 0.00 in /  0 mm
20:10 66.6 °F /  19.2 °C 43.4 °F /  6.3 °C 29.64 in /  1003.6 hPa West 5.7 mph /  9.2 km/h 9.2 mph /  14.8 km/h 43 % 0.00 in /  0 mm
20:15 66.5 °F /  19.2 °C 43.9 °F /  6.6 °C 29.64 in /  1003.6 hPa WSW 4.3 mph /  6.9 km/h 11.5 mph /  18.5 km/h 44 % 0.00 in /  0 mm
20:20 66.3 °F /  19.1 °C 43.7 °F /  6.5 °C 29.64 in /  1003.6 hPa WNW 4.8 mph /  7.7 km/h 6.9 mph /  11.1 km/h 44 % 0.00 in /  0 mm
20:25 66.2 °F /  19 °C 43.6 °F /  6.4 °C 29.65 in /  1003.9 hPa WSW 2.2 mph /  3.5 km/h 4.6 mph /  7.4 km/h 44 % 0.00 in /  0 mm
20:30 66.0 °F /  18.9 °C 44.0 °F /  6.7 °C 29.65 in /  1003.9 hPa WSW 3.4 mph /  5.5 km/h 5.0 mph /  8 km/h 45 % 0.00 in /  0 mm
20:35 65.9 °F /  18.8 °C 43.9 °F /  6.6 °C 29.65 in /  1003.9 hPa WNW 2.5 mph /  4 km/h 3.5 mph /  5.6 km/h 45 % 0.00 in /  0 mm
20:40 65.7 °F /  18.7 °C 44.3 °F /  6.8 °C 29.66 in /  1004.3 hPa West 3.9 mph /  6.3 km/h 8.1 mph /  13 km/h 46 % 0.00 in /  0 mm
20:46 65.6 °F /  18.7 °C 44.3 °F /  6.8 °C 29.66 in /  1004.3 hPa West 2.0 mph /  3.2 km/h 12.0 mph /  19.3 km/h 46 % 0.00 in /  0 mm
20:51 65.5 °F /  18.6 °C 44.2 °F /  6.8 °C 29.66 in /  1004.3 hPa WSW 2.0 mph /  3.2 km/h 9.0 mph /  14.5 km/h 46 % 0.00 in /  0 mm
20:56 65.4 °F /  18.6 °C 44.1 °F /  6.7 °C 29.66 in /  1004.3 hPa WSW 3.0 mph /  4.8 km/h 10.0 mph /  16.1 km/h 46 % 0.00 in /  0 mm
21:01 65.3 °F /  18.5 °C 44.0 °F /  6.7 °C 29.67 in /  1004.6 hPa WSW 6.1 mph /  9.8 km/h 6.1 mph /  9.8 km/h 46 % 0.00 in /  0 mm
21:06 65.2 °F /  18.4 °C 43.9 °F /  6.6 °C 29.67 in /  1004.6 hPa WSW 5.0 mph /  8 km/h 13.0 mph /  20.9 km/h 46 % 0.00 in /  0 mm
21:11 65.3 °F /  18.5 °C 44.0 °F /  6.7 °C 29.67 in /  1004.6 hPa WSW 6.0 mph /  9.7 km/h 14.0 mph /  22.5 km/h 46 % 0.00 in /  0 mm
21:16 65.3 °F /  18.5 °C 44.0 °F /  6.7 °C 29.67 in /  1004.6 hPa WSW 5.0 mph /  8 km/h 13.0 mph /  20.9 km/h 46 % 0.00 in /  0 mm
21:21 65.4 °F /  18.6 °C 44.1 °F /  6.7 °C 29.68 in /  1005 hPa West 3.0 mph /  4.8 km/h 9.0 mph /  14.5 km/h 46 % 0.00 in /  0 mm
21:26 65.4 °F /  18.6 °C 44.1 °F /  6.7 °C 29.68 in /  1005 hPa West 5.0 mph /  8 km/h 9.0 mph /  14.5 km/h 46 % 0.00 in /  0 mm
21:31 65.4 °F /  18.6 °C 44.1 °F /  6.7 °C 29.68 in /  1005 hPa West 3.0 mph /  4.8 km/h 12.0 mph /  19.3 km/h 46 % 0.00 in /  0 mm
21:36 65.4 °F /  18.6 °C 43.5 °F /  6.4 °C 29.68 in /  1005 hPa West 6.0 mph /  9.7 km/h 12.0 mph /  19.3 km/h 45 % 0.00 in /  0 mm
21:41 65.4 °F /  18.6 °C 43.5 °F /  6.4 °C 29.69 in /  1005.3 hPa WSW 6.0 mph /  9.7 km/h 12.0 mph /  19.3 km/h 45 % 0.00 in /  0 mm
21:46 65.4 °F /  18.6 °C 43.5 °F /  6.4 °C 29.69 in /  1005.3 hPa West 5.0 mph /  8 km/h 12.0 mph /  19.3 km/h 45 % 0.00 in /  0 mm
21:51 65.4 °F /  18.6 °C 44.1 °F /  6.7 °C 29.69 in /  1005.3 hPa WNW 2.0 mph /  3.2 km/h 7.0 mph /  11.3 km/h 46 % 0.00 in /  0 mm
21:56 65.2 °F /  18.4 °C 43.3 °F /  6.3 °C 29.70 in /  1005.6 hPa West 7.0 mph /  11.3 km/h 14.0 mph /  22.5 km/h 45 % 0.00 in /  0 mm
22:01 65.0 °F /  18.3 °C 43.1 °F /  6.2 °C 29.70 in /  1005.6 hPa WSW 5.7 mph /  9.2 km/h 10.4 mph /  16.7 km/h 45 % 0.00 in /  0 mm
22:06 64.8 °F /  18.2 °C 42.4 °F /  5.8 °C 29.70 in /  1005.6 hPa WSW 9.9 mph /  15.9 km/h 17.0 mph /  27.4 km/h 44 % 0.00 in /  0 mm
22:11 64.7 °F /  18.2 °C 41.7 °F /  5.4 °C 29.70 in /  1005.6 hPa WSW 9.2 mph /  14.8 km/h 16.1 mph /  25.9 km/h 43 % 0.00 in /  0 mm
22:16 64.6 °F /  18.1 °C 41.6 °F /  5.3 °C 29.71 in /  1006 hPa WSW 6.0 mph /  9.7 km/h 11.5 mph /  18.5 km/h 43 % 0.00 in /  0 mm
22:21 64.6 °F /  18.1 °C 41.6 °F /  5.3 °C 29.71 in /  1006 hPa West 6.5 mph /  10.5 km/h 11.5 mph /  18.5 km/h 43 % 0.00 in /  0 mm
22:26 64.5 °F /  18.1 °C 42.1 °F /  5.6 °C 29.72 in /  1006.3 hPa WNW 5.5 mph /  8.9 km/h 8.1 mph /  13 km/h 44 % 0.00 in /  0 mm
22:31 64.3 °F /  17.9 °C 41.3 °F /  5.2 °C 29.71 in /  1006 hPa SW 8.9 mph /  14.3 km/h 15.0 mph /  24.1 km/h 43 % 0.00 in /  0 mm
22:36 64.2 °F /  17.9 °C 41.8 °F /  5.4 °C 29.72 in /  1006.3 hPa West 5.7 mph /  9.2 km/h 9.2 mph /  14.8 km/h 44 % 0.00 in /  0 mm
22:41 64.1 °F /  17.8 °C 41.7 °F /  5.4 °C 29.72 in /  1006.3 hPa WSW 3.6 mph /  5.8 km/h 6.9 mph /  11.1 km/h 44 % 0.00 in /  0 mm
22:46 63.9 °F /  17.7 °C 42.1 °F /  5.6 °C 29.72 in /  1006.3 hPa NW 5.8 mph /  9.3 km/h 10.4 mph /  16.7 km/h 45 % 0.00 in /  0 mm
22:51 63.8 °F /  17.7 °C 42.0 °F /  5.6 °C 29.72 in /  1006.3 hPa WNW 5.8 mph /  9.3 km/h 13.0 mph /  20.9 km/h 45 % 0.00 in /  0 mm
22:56 63.6 °F /  17.6 °C 42.4 °F /  5.8 °C 29.72 in /  1006.3 hPa WNW 4.7 mph /  7.6 km/h 8.1 mph /  13 km/h 46 % 0.00 in /  0 mm
23:01 63.4 °F /  17.4 °C 42.2 °F /  5.7 °C 29.72 in /  1006.3 hPa West 5.6 mph /  9 km/h 11.5 mph /  18.5 km/h 46 % 0.00 in /  0 mm
23:07 63.3 °F /  17.4 °C 42.2 °F /  5.7 °C 29.72 in /  1006.3 hPa West 2.6 mph /  4.2 km/h 9.0 mph /  14.5 km/h 46 % 0.00 in /  0 mm
23:12 63.2 °F /  17.3 °C 42.1 °F /  5.6 °C 29.72 in /  1006.3 hPa WNW 3.2 mph /  5.1 km/h 8.1 mph /  13 km/h 46 % 0.00 in /  0 mm
23:17 63.1 °F /  17.3 °C 42.0 °F /  5.6 °C 29.72 in /  1006.3 hPa WSW 6.4 mph /  10.3 km/h 10.4 mph /  16.7 km/h 46 % 0.00 in /  0 mm
23:22 63.1 °F /  17.3 °C 42.0 °F /  5.6 °C 29.72 in /  1006.3 hPa West 4.7 mph /  7.6 km/h 10.4 mph /  16.7 km/h 46 % 0.00 in /  0 mm
23:27 63.0 °F /  17.2 °C 41.9 °F /  5.5 °C 29.72 in /  1006.3 hPa West 1.3 mph /  2.1 km/h 9.2 mph /  14.8 km/h 46 % 0.00 in /  0 mm
23:32 62.9 °F /  17.2 °C 41.8 °F /  5.4 °C 29.73 in /  1006.7 hPa WSW 4.6 mph /  7.4 km/h 10.0 mph /  16.1 km/h 46 % 0.00 in /  0 mm
23:37 62.8 °F /  17.1 °C 42.3 °F /  5.7 °C 29.73 in /  1006.7 hPa WSW 1.3 mph /  2.1 km/h 2.3 mph /  3.7 km/h 47 % 0.00 in /  0 mm
23:42 62.6 °F /  17 °C 42.1 °F /  5.6 °C 29.73 in /  1006.7 hPa WNW 4.3 mph /  6.9 km/h 8.1 mph /  13 km/h 47 % 0.00 in /  0 mm
23:47 62.6 °F /  17 °C 42.1 °F /  5.6 °C 29.73 in /  1006.7 hPa WNW 1.3 mph /  2.1 km/h 10.4 mph /  16.7 km/h 47 % 0.00 in /  0 mm
23:52 62.5 °F /  16.9 °C 42.0 °F /  5.6 °C 29.73 in /  1006.7 hPa West 3.1 mph /  5 km/h 10.4 mph /  16.7 km/h 47 % 0.00 in /  0 mm
23:57 62.4 °F /  16.9 °C 41.9 °F /  5.5 °C 29.73 in /  1006.7 hPa West 2.7 mph /  4.3 km/h 6.9 mph /  11.1 km/h 47 % 0.00 in /  0 mm
Crab Meadow Weather
Compliments of Weather Underground - 3 mb

Script developed by  Jim McMurry - jmcmurry@mwt.net Adapted for the template by  Wim van der Kuil - Leuven-Template.eu

Extremes: The highest temperature ever recorded in the United States was 134 degrees F at Greenland Ranch in Death Valley, California.